sensor_id;sensor_type;location;lat;lon;timestamp;temperature;humidity
75451;DHT22;64029;48.244;9.188;2023-03-20T00:00:30;5.40;81.10
75451;DHT22;64029;48.244;9.188;2023-03-20T00:02:58;5.30;81.10
75451;DHT22;64029;48.244;9.188;2023-03-20T00:05:27;5.30;81.20
75451;DHT22;64029;48.244;9.188;2023-03-20T00:07:54;5.30;82.10
75451;DHT22;64029;48.244;9.188;2023-03-20T00:10:24;5.30;81.60
75451;DHT22;64029;48.244;9.188;2023-03-20T00:12:52;5.30;81.80
75451;DHT22;64029;48.244;9.188;2023-03-20T00:15:24;5.30;81.80
75451;DHT22;64029;48.244;9.188;2023-03-20T00:17:52;5.30;81.90
75451;DHT22;64029;48.244;9.188;2023-03-20T00:20:19;5.20;81.80
75451;DHT22;64029;48.244;9.188;2023-03-20T00:22:48;5.20;81.80
75451;DHT22;64029;48.244;9.188;2023-03-20T00:25:17;5.20;81.90
75451;DHT22;64029;48.244;9.188;2023-03-20T00:27:45;5.20;81.90
75451;DHT22;64029;48.244;9.188;2023-03-20T00:30:19;5.10;82.20
75451;DHT22;64029;48.244;9.188;2023-03-20T00:32:47;5.10;81.90
75451;DHT22;64029;48.244;9.188;2023-03-20T00:35:20;5.00;81.80
75451;DHT22;64029;48.244;9.188;2023-03-20T00:37:49;5.00;81.80
75451;DHT22;64029;48.244;9.188;2023-03-20T00:40:16;4.90;81.70
75451;DHT22;64029;48.244;9.188;2023-03-20T00:42:44;4.90;81.70
75451;DHT22;64029;48.244;9.188;2023-03-20T00:45:14;4.90;81.70
75451;DHT22;64029;48.244;9.188;2023-03-20T00:47:42;4.90;81.80
75451;DHT22;64029;48.244;9.188;2023-03-20T00:50:15;4.90;81.80
75451;DHT22;64029;48.244;9.188;2023-03-20T00:52:42;4.80;82.00
75451;DHT22;64029;48.244;9.188;2023-03-20T00:55:11;4.80;82.20
75451;DHT22;64029;48.244;9.188;2023-03-20T00:57:41;4.80;82.30
75451;DHT22;64029;48.244;9.188;2023-03-20T01:00:20;4.80;82.50
75451;DHT22;64029;48.244;9.188;2023-03-20T01:02:48;4.70;82.40
75451;DHT22;64029;48.244;9.188;2023-03-20T01:05:15;4.70;82.50
75451;DHT22;64029;48.244;9.188;2023-03-20T01:07:42;4.70;82.60
75451;DHT22;64029;48.244;9.188;2023-03-20T01:10:12;4.70;82.40
75451;DHT22;64029;48.244;9.188;2023-03-20T01:12:39;4.60;83.20
75451;DHT22;64029;48.244;9.188;2023-03-20T01:15:15;4.60;83.00
75451;DHT22;64029;48.244;9.188;2023-03-20T01:17:43;4.60;83.50
75451;DHT22;64029;48.244;9.188;2023-03-20T01:22:41;4.50;82.70
75451;DHT22;64029;48.244;9.188;2023-03-20T01:25:10;4.50;82.60
75451;DHT22;64029;48.244;9.188;2023-03-20T01:27:37;4.50;82.30
75451;DHT22;64029;48.244;9.188;2023-03-20T01:30:15;4.50;82.20
75451;DHT22;64029;48.244;9.188;2023-03-20T01:32:41;4.50;82.00
75451;DHT22;64029;48.244;9.188;2023-03-20T01:35:11;4.60;82.00
75451;DHT22;64029;48.244;9.188;2023-03-20T01:37:39;4.60;81.90
75451;DHT22;64029;48.244;9.188;2023-03-20T01:40:15;4.60;81.60
75451;DHT22;64029;48.244;9.188;2023-03-20T01:42:45;4.60;81.80
75451;DHT22;64029;48.244;9.188;2023-03-20T01:45:15;4.60;81.80
75451;DHT22;64029;48.244;9.188;2023-03-20T01:47:42;4.60;81.60
75451;DHT22;64029;48.244;9.188;2023-03-20T01:50:27;4.60;82.50
75451;DHT22;64029;48.244;9.188;2023-03-20T01:52:59;4.60;82.20
75451;DHT22;64029;48.244;9.188;2023-03-20T01:55:29;4.50;82.10
75451;DHT22;64029;48.244;9.188;2023-03-20T01:57:59;4.50;83.40
75451;DHT22;64029;48.244;9.188;2023-03-20T02:00:27;4.50;83.00
75451;DHT22;64029;48.244;9.188;2023-03-20T02:02:55;4.50;82.60
75451;DHT22;64029;48.244;9.188;2023-03-20T02:05:23;4.50;82.20
75451;DHT22;64029;48.244;9.188;2023-03-20T02:07:58;4.50;81.70
75451;DHT22;64029;48.244;9.188;2023-03-20T02:10:28;4.50;81.90
75451;DHT22;64029;48.244;9.188;2023-03-20T02:12:56;4.50;82.10
75451;DHT22;64029;48.244;9.188;2023-03-20T02:15:25;4.50;82.30
75451;DHT22;64029;48.244;9.188;2023-03-20T02:17:52;4.50;82.00
75451;DHT22;64029;48.244;9.188;2023-03-20T02:20:33;4.50;81.80
75451;DHT22;64029;48.244;9.188;2023-03-20T02:26:31;4.50;81.80
75451;DHT22;64029;48.244;9.188;2023-03-20T02:35:31;4.40;83.30
75451;DHT22;64029;48.244;9.188;2023-03-20T02:38:22;4.40;82.90
75451;DHT22;64029;48.244;9.188;2023-03-20T02:40:57;4.40;82.20
75451;DHT22;64029;48.244;9.188;2023-03-20T02:43:31;4.40;82.20
75451;DHT22;64029;48.244;9.188;2023-03-20T02:46:10;4.40;82.00
75451;DHT22;64029;48.244;9.188;2023-03-20T02:48:46;4.40;81.70
75451;DHT22;64029;48.244;9.188;2023-03-20T02:51:22;4.40;81.80
75451;DHT22;64029;48.244;9.188;2023-03-20T02:53:58;4.40;81.80
75451;DHT22;64029;48.244;9.188;2023-03-20T02:56:30;4.40;82.30
75451;DHT22;64029;48.244;9.188;2023-03-20T02:59:04;4.40;82.60
75451;DHT22;64029;48.244;9.188;2023-03-20T03:01:38;4.40;82.20
75451;DHT22;64029;48.244;9.188;2023-03-20T03:04:10;4.40;82.50
75451;DHT22;64029;48.244;9.188;2023-03-20T03:06:41;4.40;82.40
75451;DHT22;64029;48.244;9.188;2023-03-20T03:09:13;4.40;82.00
75451;DHT22;64029;48.244;9.188;2023-03-20T03:11:47;4.40;81.80
75451;DHT22;64029;48.244;9.188;2023-03-20T03:14:20;4.40;82.60
75451;DHT22;64029;48.244;9.188;2023-03-20T03:16:51;4.30;83.20
75451;DHT22;64029;48.244;9.188;2023-03-20T03:19:22;4.30;83.20
75451;DHT22;64029;48.244;9.188;2023-03-20T03:21:49;4.30;83.00
75451;DHT22;64029;48.244;9.188;2023-03-20T03:24:26;4.30;83.00
75451;DHT22;64029;48.244;9.188;2023-03-20T03:26:55;4.30;83.00
75451;DHT22;64029;48.244;9.188;2023-03-20T03:29:25;4.30;82.90
75451;DHT22;64029;48.244;9.188;2023-03-20T03:31:54;4.30;82.80
75451;DHT22;64029;48.244;9.188;2023-03-20T03:34:21;4.20;82.50
75451;DHT22;64029;48.244;9.188;2023-03-20T03:36:52;4.20;82.70
75451;DHT22;64029;48.244;9.188;2023-03-20T03:39:26;4.20;82.30
75451;DHT22;64029;48.244;9.188;2023-03-20T03:42:04;4.20;82.40
75451;DHT22;64029;48.244;9.188;2023-03-20T03:44:36;4.20;82.10
75451;DHT22;64029;48.244;9.188;2023-03-20T03:47:11;4.20;81.90
75451;DHT22;64029;48.244;9.188;2023-03-20T03:49:43;4.20;82.10
75451;DHT22;64029;48.244;9.188;2023-03-20T03:52:15;4.20;82.50
75451;DHT22;64029;48.244;9.188;2023-03-20T03:54:50;4.10;82.30
75451;DHT22;64029;48.244;9.188;2023-03-20T03:57:21;4.10;82.20
75451;DHT22;64029;48.244;9.188;2023-03-20T03:59:51;4.10;82.30
75451;DHT22;64029;48.244;9.188;2023-03-20T04:02:20;4.10;82.00
75451;DHT22;64029;48.244;9.188;2023-03-20T04:04:50;4.00;82.30
75451;DHT22;64029;48.244;9.188;2023-03-20T04:07:18;4.00;82.20
75451;DHT22;64029;48.244;9.188;2023-03-20T04:09:46;4.00;81.60
75451;DHT22;64029;48.244;9.188;2023-03-20T04:12:32;4.00;81.70
75451;DHT22;64029;48.244;9.188;2023-03-20T04:14:59;4.00;81.80
75451;DHT22;64029;48.244;9.188;2023-03-20T04:17:26;4.00;83.00
75451;DHT22;64029;48.244;9.188;2023-03-20T04:19:53;4.00;82.80
75451;DHT22;64029;48.244;9.188;2023-03-20T04:22:20;4.00;82.50
75451;DHT22;64029;48.244;9.188;2023-03-20T04:24:47;4.00;82.10
75451;DHT22;64029;48.244;9.188;2023-03-20T04:27:14;4.00;82.00
75451;DHT22;64029;48.244;9.188;2023-03-20T04:29:42;4.00;81.90
75451;DHT22;64029;48.244;9.188;2023-03-20T04:32:09;4.00;82.70
75451;DHT22;64029;48.244;9.188;2023-03-20T04:34:36;4.00;82.40
75451;DHT22;64029;48.244;9.188;2023-03-20T04:37:03;4.00;83.30
75451;DHT22;64029;48.244;9.188;2023-03-20T04:39:33;4.00;82.80
75451;DHT22;64029;48.244;9.188;2023-03-20T04:41:59;4.00;82.30
75451;DHT22;64029;48.244;9.188;2023-03-20T04:44:26;4.00;82.20
75451;DHT22;64029;48.244;9.188;2023-03-20T04:46:55;4.00;82.30
75451;DHT22;64029;48.244;9.188;2023-03-20T04:49:22;4.00;82.30
75451;DHT22;64029;48.244;9.188;2023-03-20T04:51:49;4.00;82.50
75451;DHT22;64029;48.244;9.188;2023-03-20T04:54:15;4.00;82.90
75451;DHT22;64029;48.244;9.188;2023-03-20T04:56:42;4.00;83.30
75451;DHT22;64029;48.244;9.188;2023-03-20T04:59:09;4.00;84.00
75451;DHT22;64029;48.244;9.188;2023-03-20T05:01:36;4.00;83.30
75451;DHT22;64029;48.244;9.188;2023-03-20T05:04:04;4.00;83.20
75451;DHT22;64029;48.244;9.188;2023-03-20T05:06:31;4.00;83.10
75451;DHT22;64029;48.244;9.188;2023-03-20T05:08:58;4.00;83.00
75451;DHT22;64029;48.244;9.188;2023-03-20T05:11:26;4.00;84.00
75451;DHT22;64029;48.244;9.188;2023-03-20T05:13:53;4.00;83.20
75451;DHT22;64029;48.244;9.188;2023-03-20T05:16:20;4.10;83.70
75451;DHT22;64029;48.244;9.188;2023-03-20T05:18:47;4.00;83.70
75451;DHT22;64029;48.244;9.188;2023-03-20T05:21:16;4.10;83.80
75451;DHT22;64029;48.244;9.188;2023-03-20T05:23:43;4.10;83.60
75451;DHT22;64029;48.244;9.188;2023-03-20T05:26:10;4.10;83.70
75451;DHT22;64029;48.244;9.188;2023-03-20T05:28:36;4.10;84.00
75451;DHT22;64029;48.244;9.188;2023-03-20T05:31:03;4.10;84.40
75451;DHT22;64029;48.244;9.188;2023-03-20T05:33:31;4.10;84.60
75451;DHT22;64029;48.244;9.188;2023-03-20T05:35:57;4.10;84.20
75451;DHT22;64029;48.244;9.188;2023-03-20T05:38:26;4.10;84.60
75451;DHT22;64029;48.244;9.188;2023-03-20T05:40:56;4.10;84.50
75451;DHT22;64029;48.244;9.188;2023-03-20T05:43:23;4.20;84.80
75451;DHT22;64029;48.244;9.188;2023-03-20T05:45:50;4.10;84.40
75451;DHT22;64029;48.244;9.188;2023-03-20T05:48:17;4.20;84.50
75451;DHT22;64029;48.244;9.188;2023-03-20T05:50:44;4.20;84.60
75451;DHT22;64029;48.244;9.188;2023-03-20T05:53:11;4.20;84.80
75451;DHT22;64029;48.244;9.188;2023-03-20T05:55:39;4.20;84.60
75451;DHT22;64029;48.244;9.188;2023-03-20T05:58:06;4.20;84.80
75451;DHT22;64029;48.244;9.188;2023-03-20T06:00:33;4.30;85.70
75451;DHT22;64029;48.244;9.188;2023-03-20T06:03:00;4.30;84.00
75451;DHT22;64029;48.244;9.188;2023-03-20T06:05:27;4.30;84.20
75451;DHT22;64029;48.244;9.188;2023-03-20T06:07:53;4.30;84.70
75451;DHT22;64029;48.244;9.188;2023-03-20T06:10:20;4.30;84.60
75451;DHT22;64029;48.244;9.188;2023-03-20T06:12:49;4.30;84.40
75451;DHT22;64029;48.244;9.188;2023-03-20T06:15:16;4.30;85.50
75451;DHT22;64029;48.244;9.188;2023-03-20T06:17:42;4.30;85.60
75451;DHT22;64029;48.244;9.188;2023-03-20T06:20:10;4.30;85.10
75451;DHT22;64029;48.244;9.188;2023-03-20T06:22:37;4.40;85.30
75451;DHT22;64029;48.244;9.188;2023-03-20T06:25:05;4.40;85.10
75451;DHT22;64029;48.244;9.188;2023-03-20T06:27:33;4.40;85.10
75451;DHT22;64029;48.244;9.188;2023-03-20T06:30:01;4.40;85.30
75451;DHT22;64029;48.244;9.188;2023-03-20T06:32:28;4.40;85.20
75451;DHT22;64029;48.244;9.188;2023-03-20T06:34:55;4.40;85.20
75451;DHT22;64029;48.244;9.188;2023-03-20T06:37:22;4.50;85.40
75451;DHT22;64029;48.244;9.188;2023-03-20T06:39:49;4.50;85.40
75451;DHT22;64029;48.244;9.188;2023-03-20T06:42:16;4.50;84.90
75451;DHT22;64029;48.244;9.188;2023-03-20T06:44:43;4.50;85.40
75451;DHT22;64029;48.244;9.188;2023-03-20T06:47:11;4.60;85.40
75451;DHT22;64029;48.244;9.188;2023-03-20T06:49:38;4.60;84.80
75451;DHT22;64029;48.244;9.188;2023-03-20T06:52:05;4.60;85.40
75451;DHT22;64029;48.244;9.188;2023-03-20T06:54:32;4.60;85.60
75451;DHT22;64029;48.244;9.188;2023-03-20T06:56:58;4.60;85.20
75451;DHT22;64029;48.244;9.188;2023-03-20T06:59:25;4.70;85.60
75451;DHT22;64029;48.244;9.188;2023-03-20T07:01:52;4.70;85.70
75451;DHT22;64029;48.244;9.188;2023-03-20T07:04:20;4.70;85.80
75451;DHT22;64029;48.244;9.188;2023-03-20T07:06:47;4.70;85.30
75451;DHT22;64029;48.244;9.188;2023-03-20T07:09:14;4.70;84.90
75451;DHT22;64029;48.244;9.188;2023-03-20T07:11:42;4.80;85.00
75451;DHT22;64029;48.244;9.188;2023-03-20T07:14:09;4.80;83.90
75451;DHT22;64029;48.244;9.188;2023-03-20T07:16:36;4.80;83.80
75451;DHT22;64029;48.244;9.188;2023-03-20T07:19:03;4.90;83.90
75451;DHT22;64029;48.244;9.188;2023-03-20T07:21:31;4.90;84.60
75451;DHT22;64029;48.244;9.188;2023-03-20T07:23:58;4.90;85.80
75451;DHT22;64029;48.244;9.188;2023-03-20T07:26:25;5.00;88.30
75451;DHT22;64029;48.244;9.188;2023-03-20T07:28:52;5.10;88.70
75451;DHT22;64029;48.244;9.188;2023-03-20T07:31:21;5.10;87.50
75451;DHT22;64029;48.244;9.188;2023-03-20T07:33:48;5.10;85.80
75451;DHT22;64029;48.244;9.188;2023-03-20T07:36:15;5.10;85.90
75451;DHT22;64029;48.244;9.188;2023-03-20T07:38:43;5.20;88.60
75451;DHT22;64029;48.244;9.188;2023-03-20T07:41:10;5.30;89.90
75451;DHT22;64029;48.244;9.188;2023-03-20T07:43:37;5.40;90.00
75451;DHT22;64029;48.244;9.188;2023-03-20T07:46:06;5.50;89.60
75451;DHT22;64029;48.244;9.188;2023-03-20T07:48:33;5.50;88.40
75451;DHT22;64029;48.244;9.188;2023-03-20T07:51:00;5.60;89.50
75451;DHT22;64029;48.244;9.188;2023-03-20T07:53:27;5.70;90.00
75451;DHT22;64029;48.244;9.188;2023-03-20T07:55:55;5.80;89.50
75451;DHT22;64029;48.244;9.188;2023-03-20T07:58:22;5.80;89.70
75451;DHT22;64029;48.244;9.188;2023-03-20T08:00:49;5.90;89.90
75451;DHT22;64029;48.244;9.188;2023-03-20T08:03:16;5.90;88.30
75451;DHT22;64029;48.244;9.188;2023-03-20T08:05:43;5.90;88.80
75451;DHT22;64029;48.244;9.188;2023-03-20T08:08:10;5.90;88.20
75451;DHT22;64029;48.244;9.188;2023-03-20T08:10:37;6.00;87.50
75451;DHT22;64029;48.244;9.188;2023-03-20T08:13:05;6.00;88.70
75451;DHT22;64029;48.244;9.188;2023-03-20T08:15:32;6.10;89.00
75451;DHT22;64029;48.244;9.188;2023-03-20T08:17:59;6.10;88.00
75451;DHT22;64029;48.244;9.188;2023-03-20T08:20:26;6.20;88.60
75451;DHT22;64029;48.244;9.188;2023-03-20T08:22:52;6.20;87.50
75451;DHT22;64029;48.244;9.188;2023-03-20T08:25:19;6.30;88.70
75451;DHT22;64029;48.244;9.188;2023-03-20T08:27:47;6.20;87.20
75451;DHT22;64029;48.244;9.188;2023-03-20T08:30:16;6.30;87.80
75451;DHT22;64029;48.244;9.188;2023-03-20T08:32:42;6.30;88.00
75451;DHT22;64029;48.244;9.188;2023-03-20T08:35:09;6.40;87.90
75451;DHT22;64029;48.244;9.188;2023-03-20T08:37:36;6.40;88.60
75451;DHT22;64029;48.244;9.188;2023-03-20T08:40:04;6.40;87.90
75451;DHT22;64029;48.244;9.188;2023-03-20T08:42:31;6.50;87.80
75451;DHT22;64029;48.244;9.188;2023-03-20T08:44:58;6.50;87.70
75451;DHT22;64029;48.244;9.188;2023-03-20T08:47:26;6.50;87.40
75451;DHT22;64029;48.244;9.188;2023-03-20T08:49:53;6.50;86.70
75451;DHT22;64029;48.244;9.188;2023-03-20T08:52:20;6.50;86.40
75451;DHT22;64029;48.244;9.188;2023-03-20T08:54:47;6.50;86.30
75451;DHT22;64029;48.244;9.188;2023-03-20T08:57:14;6.50;86.10
75451;DHT22;64029;48.244;9.188;2023-03-20T08:59:41;6.60;86.40
75451;DHT22;64029;48.244;9.188;2023-03-20T09:02:09;6.60;86.10
75451;DHT22;64029;48.244;9.188;2023-03-20T09:04:37;6.60;85.90
75451;DHT22;64029;48.244;9.188;2023-03-20T09:07:05;6.60;85.80
75451;DHT22;64029;48.244;9.188;2023-03-20T09:09:32;6.60;85.80
75451;DHT22;64029;48.244;9.188;2023-03-20T09:11:59;6.70;86.10
75451;DHT22;64029;48.244;9.188;2023-03-20T09:14:27;6.70;85.90
75451;DHT22;64029;48.244;9.188;2023-03-20T09:16:54;6.70;85.80
75451;DHT22;64029;48.244;9.188;2023-03-20T09:19:21;6.70;85.50
75451;DHT22;64029;48.244;9.188;2023-03-20T09:21:49;6.70;85.40
75451;DHT22;64029;48.244;9.188;2023-03-20T09:24:16;6.70;85.40
75451;DHT22;64029;48.244;9.188;2023-03-20T09:26:42;6.80;85.50
75451;DHT22;64029;48.244;9.188;2023-03-20T09:29:09;6.80;85.40
75451;DHT22;64029;48.244;9.188;2023-03-20T09:31:36;6.80;85.40
75451;DHT22;64029;48.244;9.188;2023-03-20T09:34:03;6.80;84.80
75451;DHT22;64029;48.244;9.188;2023-03-20T09:36:30;6.90;84.60
75451;DHT22;64029;48.244;9.188;2023-03-20T09:38:59;6.90;84.80
75451;DHT22;64029;48.244;9.188;2023-03-20T09:41:26;6.90;84.40
75451;DHT22;64029;48.244;9.188;2023-03-20T09:44:10;7.00;84.00
75451;DHT22;64029;48.244;9.188;2023-03-20T09:46:55;7.00;83.70
75451;DHT22;64029;48.244;9.188;2023-03-20T09:49:33;7.00;83.40
75451;DHT22;64029;48.244;9.188;2023-03-20T09:52:06;7.00;83.20
75451;DHT22;64029;48.244;9.188;2023-03-20T09:54:40;7.00;84.40
75451;DHT22;64029;48.244;9.188;2023-03-20T09:57:15;7.10;83.20
75451;DHT22;64029;48.244;9.188;2023-03-20T09:59:43;7.10;83.50
75451;DHT22;64029;48.244;9.188;2023-03-20T10:02:14;7.10;83.00
75451;DHT22;64029;48.244;9.188;2023-03-20T10:04:46;7.10;82.80
75451;DHT22;64029;48.244;9.188;2023-03-20T10:07:16;7.10;81.90
75451;DHT22;64029;48.244;9.188;2023-03-20T10:09:45;7.20;82.50
75451;DHT22;64029;48.244;9.188;2023-03-20T10:12:24;7.20;81.50
75451;DHT22;64029;48.244;9.188;2023-03-20T10:14:59;7.20;82.20
75451;DHT22;64029;48.244;9.188;2023-03-20T10:17:42;7.30;82.90
75451;DHT22;64029;48.244;9.188;2023-03-20T10:20:15;7.30;83.00
75451;DHT22;64029;48.244;9.188;2023-03-20T10:22:48;7.40;83.00
75451;DHT22;64029;48.244;9.188;2023-03-20T10:25:22;7.50;82.90
75451;DHT22;64029;48.244;9.188;2023-03-20T10:27:55;7.50;82.90
75451;DHT22;64029;48.244;9.188;2023-03-20T10:30:32;7.60;83.10
75451;DHT22;64029;48.244;9.188;2023-03-20T10:33:09;7.60;81.80
75451;DHT22;64029;48.244;9.188;2023-03-20T10:35:44;7.60;82.50
75451;DHT22;64029;48.244;9.188;2023-03-20T10:38:20;7.70;81.80
75451;DHT22;64029;48.244;9.188;2023-03-20T10:40:52;7.70;82.60
75451;DHT22;64029;48.244;9.188;2023-03-20T10:43:23;7.80;80.40
75451;DHT22;64029;48.244;9.188;2023-03-20T10:45:56;7.90;80.60
75451;DHT22;64029;48.244;9.188;2023-03-20T10:48:28;7.90;81.40
75451;DHT22;64029;48.244;9.188;2023-03-20T10:50:59;8.00;82.20
75451;DHT22;64029;48.244;9.188;2023-03-20T10:53:30;8.00;82.40
75451;DHT22;64029;48.244;9.188;2023-03-20T10:56:01;8.10;82.50
75451;DHT22;64029;48.244;9.188;2023-03-20T10:58:32;8.10;82.30
75451;DHT22;64029;48.244;9.188;2023-03-20T11:01:00;8.20;82.60
75451;DHT22;64029;48.244;9.188;2023-03-20T11:03:29;8.20;81.80
75451;DHT22;64029;48.244;9.188;2023-03-20T11:05:59;8.20;81.90
75451;DHT22;64029;48.244;9.188;2023-03-20T11:08:33;8.30;81.50
75451;DHT22;64029;48.244;9.188;2023-03-20T11:11:03;8.20;79.10
75451;DHT22;64029;48.244;9.188;2023-03-20T11:13:32;8.20;79.60
75451;DHT22;64029;48.244;9.188;2023-03-20T11:16:19;8.20;81.10
75451;DHT22;64029;48.244;9.188;2023-03-20T11:18:46;8.30;80.10
75451;DHT22;64029;48.244;9.188;2023-03-20T11:21:18;8.20;78.10
75451;DHT22;64029;48.244;9.188;2023-03-20T11:23:46;8.30;80.40
75451;DHT22;64029;48.244;9.188;2023-03-20T11:26:16;8.30;78.00
75451;DHT22;64029;48.244;9.188;2023-03-20T11:28:49;8.20;74.10
75451;DHT22;64029;48.244;9.188;2023-03-20T11:31:20;8.10;76.10
75451;DHT22;64029;48.244;9.188;2023-03-20T11:33:52;8.20;77.80
75451;DHT22;64029;48.244;9.188;2023-03-20T11:36:27;8.20;77.60
75451;DHT22;64029;48.244;9.188;2023-03-20T11:39:00;8.30;77.80
75451;DHT22;64029;48.244;9.188;2023-03-20T11:41:29;8.40;79.70
75451;DHT22;64029;48.244;9.188;2023-03-20T11:43:56;8.40;78.60
75451;DHT22;64029;48.244;9.188;2023-03-20T11:46:24;8.40;75.80
75451;DHT22;64029;48.244;9.188;2023-03-20T11:49:06;8.40;75.70
75451;DHT22;64029;48.244;9.188;2023-03-20T11:51:35;8.30;73.80
75451;DHT22;64029;48.244;9.188;2023-03-20T11:54:04;8.40;75.90
75451;DHT22;64029;48.244;9.188;2023-03-20T11:56:34;8.40;75.60
75451;DHT22;64029;48.244;9.188;2023-03-20T11:59:08;8.50;75.50
75451;DHT22;64029;48.244;9.188;2023-03-20T12:01:40;8.40;75.00
75451;DHT22;64029;48.244;9.188;2023-03-20T12:04:14;8.50;73.40
75451;DHT22;64029;48.244;9.188;2023-03-20T12:06:45;8.60;75.90
75451;DHT22;64029;48.244;9.188;2023-03-20T12:09:22;8.60;76.50
75451;DHT22;64029;48.244;9.188;2023-03-20T12:11:54;8.70;76.60
75451;DHT22;64029;48.244;9.188;2023-03-20T12:14:26;8.70;77.70
75451;DHT22;64029;48.244;9.188;2023-03-20T12:17:04;8.80;78.40
75451;DHT22;64029;48.244;9.188;2023-03-20T12:19:32;8.80;76.80
75451;DHT22;64029;48.244;9.188;2023-03-20T12:22:02;8.80;76.30
75451;DHT22;64029;48.244;9.188;2023-03-20T12:24:36;8.70;74.60
75451;DHT22;64029;48.244;9.188;2023-03-20T12:27:16;8.80;75.00
75451;DHT22;64029;48.244;9.188;2023-03-20T12:29:47;8.90;74.80
75451;DHT22;64029;48.244;9.188;2023-03-20T12:32:20;8.90;74.10
75451;DHT22;64029;48.244;9.188;2023-03-20T12:34:51;9.00;73.30
75451;DHT22;64029;48.244;9.188;2023-03-20T12:37:20;9.00;75.90
75451;DHT22;64029;48.244;9.188;2023-03-20T12:39:53;9.10;76.20
75451;DHT22;64029;48.244;9.188;2023-03-20T12:42:33;9.10;75.90
75451;DHT22;64029;48.244;9.188;2023-03-20T12:45:08;9.20;76.50
75451;DHT22;64029;48.244;9.188;2023-03-20T12:47:57;9.20;75.00
75451;DHT22;64029;48.244;9.188;2023-03-20T12:50:30;9.20;73.30
75451;DHT22;64029;48.244;9.188;2023-03-20T12:53:10;9.20;73.40
75451;DHT22;64029;48.244;9.188;2023-03-20T12:55:49;9.30;75.80
75451;DHT22;64029;48.244;9.188;2023-03-20T12:58:24;9.30;73.80
75451;DHT22;64029;48.244;9.188;2023-03-20T13:01:00;9.40;75.70
75451;DHT22;64029;48.244;9.188;2023-03-20T13:03:55;9.40;76.90
75451;DHT22;64029;48.244;9.188;2023-03-20T13:06:32;9.50;76.80
75451;DHT22;64029;48.244;9.188;2023-03-20T13:09:23;9.50;75.00
75451;DHT22;64029;48.244;9.188;2023-03-20T13:11:58;9.40;74.40
75451;DHT22;64029;48.244;9.188;2023-03-20T13:14:33;9.50;74.70
75451;DHT22;64029;48.244;9.188;2023-03-20T13:17:11;9.50;75.80
75451;DHT22;64029;48.244;9.188;2023-03-20T13:19:45;9.50;73.50
75451;DHT22;64029;48.244;9.188;2023-03-20T13:22:18;9.50;73.00
75451;DHT22;64029;48.244;9.188;2023-03-20T13:24:48;9.60;74.00
75451;DHT22;64029;48.244;9.188;2023-03-20T13:27:26;9.60;75.00
75451;DHT22;64029;48.244;9.188;2023-03-20T13:30:02;9.60;73.70
75451;DHT22;64029;48.244;9.188;2023-03-20T13:32:38;9.60;74.70
75451;DHT22;64029;48.244;9.188;2023-03-20T13:35:20;9.60;73.00
75451;DHT22;64029;48.244;9.188;2023-03-20T13:37:51;9.60;72.10
75451;DHT22;64029;48.244;9.188;2023-03-20T13:40:22;9.60;71.30
75451;DHT22;64029;48.244;9.188;2023-03-20T13:42:53;9.70;73.10
75451;DHT22;64029;48.244;9.188;2023-03-20T13:45:28;9.70;69.70
75451;DHT22;64029;48.244;9.188;2023-03-20T13:47:58;9.70;69.30
75451;DHT22;64029;48.244;9.188;2023-03-20T13:50:44;9.70;73.20
75451;DHT22;64029;48.244;9.188;2023-03-20T13:53:25;9.80;74.70
75451;DHT22;64029;48.244;9.188;2023-03-20T13:56:02;9.90;73.30
75451;DHT22;64029;48.244;9.188;2023-03-20T13:58:41;9.90;73.90
75451;DHT22;64029;48.244;9.188;2023-03-20T14:01:17;9.90;75.40
75451;DHT22;64029;48.244;9.188;2023-03-20T14:03:48;9.90;72.50
75451;DHT22;64029;48.244;9.188;2023-03-20T14:06:17;10.00;73.90
75451;DHT22;64029;48.244;9.188;2023-03-20T14:08:47;10.00;74.20
75451;DHT22;64029;48.244;9.188;2023-03-20T14:11:25;10.00;69.90
75451;DHT22;64029;48.244;9.188;2023-03-20T14:13:58;10.00;71.80
75451;DHT22;64029;48.244;9.188;2023-03-20T14:16:30;10.10;72.00
75451;DHT22;64029;48.244;9.188;2023-03-20T14:19:06;10.00;71.30
75451;DHT22;64029;48.244;9.188;2023-03-20T14:21:34;10.10;71.60
75451;DHT22;64029;48.244;9.188;2023-03-20T14:24:03;10.00;69.60
75451;DHT22;64029;48.244;9.188;2023-03-20T14:26:33;10.10;69.90
75451;DHT22;64029;48.244;9.188;2023-03-20T14:29:20;10.10;70.30
75451;DHT22;64029;48.244;9.188;2023-03-20T14:31:49;10.10;68.20
75451;DHT22;64029;48.244;9.188;2023-03-20T14:34:19;10.10;69.10
75451;DHT22;64029;48.244;9.188;2023-03-20T14:36:57;10.20;71.10
75451;DHT22;64029;48.244;9.188;2023-03-20T14:39:38;10.20;72.10
75451;DHT22;64029;48.244;9.188;2023-03-20T14:42:25;10.20;69.00
75451;DHT22;64029;48.244;9.188;2023-03-20T14:45:19;10.20;70.00
75451;DHT22;64029;48.244;9.188;2023-03-20T14:47:57;10.20;69.00
75451;DHT22;64029;48.244;9.188;2023-03-20T14:50:29;10.10;67.30
75451;DHT22;64029;48.244;9.188;2023-03-20T14:53:07;10.20;69.00
75451;DHT22;64029;48.244;9.188;2023-03-20T14:56:05;10.20;70.30
75451;DHT22;64029;48.244;9.188;2023-03-20T14:58:47;10.20;69.90
75451;DHT22;64029;48.244;9.188;2023-03-20T15:01:17;10.20;67.90
75451;DHT22;64029;48.244;9.188;2023-03-20T15:03:55;10.20;69.40
75451;DHT22;64029;48.244;9.188;2023-03-20T15:06:25;10.10;67.80
75451;DHT22;64029;48.244;9.188;2023-03-20T15:08:55;10.20;69.40
75451;DHT22;64029;48.244;9.188;2023-03-20T15:11:24;10.20;69.30
75451;DHT22;64029;48.244;9.188;2023-03-20T15:13:52;10.30;69.50
75451;DHT22;64029;48.244;9.188;2023-03-20T15:16:27;10.30;71.00
75451;DHT22;64029;48.244;9.188;2023-03-20T15:18:55;10.30;70.50
75451;DHT22;64029;48.244;9.188;2023-03-20T15:21:30;10.30;70.00
75451;DHT22;64029;48.244;9.188;2023-03-20T15:23:58;10.30;69.50
75451;DHT22;64029;48.244;9.188;2023-03-20T15:26:27;10.30;70.90
75451;DHT22;64029;48.244;9.188;2023-03-20T15:28:59;10.40;71.50
75451;DHT22;64029;48.244;9.188;2023-03-20T15:31:28;10.30;69.70
75451;DHT22;64029;48.244;9.188;2023-03-20T15:34:00;10.40;71.60
75451;DHT22;64029;48.244;9.188;2023-03-20T15:36:32;10.40;70.90
75451;DHT22;64029;48.244;9.188;2023-03-20T15:39:05;10.40;71.10
75451;DHT22;64029;48.244;9.188;2023-03-20T15:41:36;10.40;71.90
75451;DHT22;64029;48.244;9.188;2023-03-20T15:44:15;10.40;69.90
75451;DHT22;64029;48.244;9.188;2023-03-20T15:46:53;10.30;69.70
75451;DHT22;64029;48.244;9.188;2023-03-20T15:49:22;10.40;70.30
75451;DHT22;64029;48.244;9.188;2023-03-20T15:51:51;10.40;68.10
75451;DHT22;64029;48.244;9.188;2023-03-20T15:54:18;10.30;67.50
75451;DHT22;64029;48.244;9.188;2023-03-20T15:56:49;10.30;67.30
75451;DHT22;64029;48.244;9.188;2023-03-20T15:59:18;10.30;65.90
75451;DHT22;64029;48.244;9.188;2023-03-20T16:01:48;10.20;66.60
75451;DHT22;64029;48.244;9.188;2023-03-20T16:04:17;10.20;66.60
75451;DHT22;64029;48.244;9.188;2023-03-20T16:06:48;10.20;66.00
75451;DHT22;64029;48.244;9.188;2023-03-20T16:09:18;10.20;67.20
75451;DHT22;64029;48.244;9.188;2023-03-20T16:11:46;10.20;66.60
75451;DHT22;64029;48.244;9.188;2023-03-20T16:14:17;10.20;66.50
75451;DHT22;64029;48.244;9.188;2023-03-20T16:16:47;10.20;67.80
75451;DHT22;64029;48.244;9.188;2023-03-20T16:19:15;10.20;67.90